Time;durP1;ratioP1;P1;durP2;ratioP2;P2;SDS_P1;SDS_P2;PMS_P1;PMS_P2;Temp;Humidity;BMP_temperature;BMP_pressure;BME280_temperature;BME280_humidity;BME280_pressure;Samples;Min_cycle;Max_cycle;Signal;HPM_P1;HPM_P2
2023/01/23 00:01:51;;;;;;;16.67;9.90;;;2.80;99.90;;;;;;4951810;28;20303;-72
2023/01/23 00:04:17;;;;;;;15.33;9.97;;;2.40;99.90;;;;;;4952252;28;20726;-74
2023/01/23 00:06:42;;;;;;;15.30;9.30;;;2.40;99.90;;;;;;4950711;28;20217;-74
2023/01/23 00:09:08;;;;;;;17.50;10.43;;;2.40;99.90;;;;;;4949748;28;20647;-74
2023/01/23 00:11:34;;;;;;;19.20;10.70;;;2.50;99.90;;;;;;4951437;28;20263;-74
2023/01/23 00:14:01;;;;;;;16.20;9.80;;;2.80;99.90;;;;;;4949070;28;20447;-73
2023/01/23 00:16:30;;;;;;;14.70;9.67;;;2.50;99.90;;;;;;4954143;28;20303;-74
2023/01/23 00:18:55;;;;;;;19.53;10.57;;;2.90;99.90;;;;;;4947953;28;20440;-73
2023/01/23 00:21:25;;;;;;;18.93;10.30;;;2.60;99.90;;;;;;4946213;28;20886;-71
2023/01/23 00:23:53;;;;;;;17.13;10.30;;;2.50;99.90;;;;;;4951705;28;20220;-73
2023/01/23 00:26:21;;;;;;;16.00;10.30;;;2.60;99.90;;;;;;4951351;28;20432;-74
2023/01/23 00:28:47;;;;;;;16.43;9.70;;;2.50;99.90;;;;;;4951177;28;20433;-73
2023/01/23 00:31:17;;;;;;;15.93;9.50;;;2.40;99.90;;;;;;4951984;28;20452;-72
2023/01/23 00:33:43;;;;;;;17.67;10.23;;;2.40;99.90;;;;;;4951668;28;20444;-73
2023/01/23 00:36:10;;;;;;;19.80;10.90;;;2.50;99.90;;;;;;4949911;28;20455;-75
2023/01/23 00:38:35;;;;;;;16.40;10.60;;;2.60;99.90;;;;;;4952232;28;20471;-74
2023/01/23 00:41:01;;;;;;;17.47;9.80;;;2.40;99.90;;;;;;4952436;28;20503;-74
2023/01/23 00:43:28;;;;;;;17.37;9.97;;;2.40;99.90;;;;;;4951017;28;20219;-72
2023/01/23 00:45:53;;;;;;;18.10;10.33;;;2.90;99.90;;;;;;4950423;28;20436;-73
2023/01/23 00:48:19;;;;;;;16.60;9.63;;;2.80;99.90;;;;;;4954080;28;20476;-74
2023/01/23 00:50:44;;;;;;;17.13;10.80;;;2.40;99.90;;;;;;4951073;28;20184;-74
2023/01/23 00:53:11;;;;;;;15.10;9.97;;;2.40;99.90;;;;;;4952159;28;20737;-74
2023/01/23 00:55:37;;;;;;;17.57;10.30;;;2.40;99.90;;;;;;4951014;28;20173;-74
2023/01/23 00:58:03;;;;;;;16.33;9.77;;;2.40;99.90;;;;;;4951131;28;20428;-73
2023/01/23 01:00:28;;;;;;;18.73;10.50;;;2.50;99.90;;;;;;4950679;28;20235;-74
2023/01/23 01:02:54;;;;;;;19.50;10.90;;;2.40;99.90;;;;;;4952151;28;20227;-72
2023/01/23 01:05:20;;;;;;;17.90;10.23;;;2.70;99.90;;;;;;4946882;28;20188;-74
2023/01/23 01:07:46;;;;;;;17.57;11.03;;;2.30;99.90;;;;;;4948869;28;20180;-73
2023/01/23 01:10:12;;;;;;;16.97;9.90;;;2.30;99.90;;;;;;4950412;28;20916;-74
2023/01/23 01:12:38;;;;;;;16.10;9.40;;;2.20;99.90;;;;;;4949927;28;20977;-73
2023/01/23 01:15:05;;;;;;;16.93;10.00;;;1.80;99.90;;;;;;4951725;28;20443;-74
2023/01/23 01:17:31;;;;;;;17.83;9.93;;;2.10;99.90;;;;;;4949488;28;20809;-74
2023/01/23 01:19:56;;;;;;;15.67;9.50;;;2.20;99.90;;;;;;4950590;28;20495;-73
2023/01/23 01:22:22;;;;;;;16.20;9.60;;;2.10;99.90;;;;;;4950292;28;20560;-74
2023/01/23 01:24:47;;;;;;;16.40;9.47;;;2.00;99.90;;;;;;4952277;28;20686;-73
2023/01/23 01:27:13;;;;;;;16.20;10.13;;;2.10;99.90;;;;;;4950763;28;20188;-74
2023/01/23 01:29:38;;;;;;;17.17;10.27;;;2.20;99.90;;;;;;4948931;28;20191;-74
2023/01/23 01:32:04;;;;;;;18.00;10.00;;;1.70;99.90;;;;;;4950256;28;20811;-73
2023/01/23 01:34:30;;;;;;;17.23;9.83;;;1.60;99.90;;;;;;4951122;28;20263;-74
2023/01/23 01:36:55;;;;;;;17.23;9.50;;;1.90;99.90;;;;;;4949771;28;20560;-73
2023/01/23 01:39:21;;;;;;;19.27;10.87;;;1.60;99.90;;;;;;4949247;28;20172;-73
2023/01/23 01:41:47;;;;;;;14.80;9.90;;;1.60;99.90;;;;;;4950152;28;20216;-74
2023/01/23 01:44:20;;;;;;;19.40;10.67;;;1.50;99.90;;;;;;4950676;28;20181;-74
2023/01/23 01:46:47;;;;;;;19.60;10.90;;;1.40;99.90;;;;;;4951652;28;20208;-74
2023/01/23 01:49:25;;;;;;;18.00;9.70;;;1.80;99.90;;;;;;4948692;28;20535;-74
2023/01/23 01:52:00;;;;;;;19.33;9.90;;;1.40;99.90;;;;;;4949993;28;20451;-73
2023/01/23 01:54:35;;;;;;;16.80;10.67;;;1.50;99.90;;;;;;4948330;28;20802;-74
2023/01/23 01:57:16;;;;;;;21.77;10.67;;;1.50;99.90;;;;;;4949635;28;20482;-74
2023/01/23 01:59:47;;;;;;;19.87;10.43;;;1.50;99.90;;;;;;4948265;28;20443;-73
2023/01/23 02:02:26;;;;;;;17.90;10.20;;;1.60;99.90;;;;;;4946788;28;20832;-74
2023/01/23 02:04:59;;;;;;;16.30;9.60;;;1.80;99.90;;;;;;4949077;28;20447;-74
2023/01/23 02:07:47;;;;;;;20.10;9.40;;;1.30;99.90;;;;;;4947800;28;20443;-74
2023/01/23 02:10:13;;;;;;;17.97;10.10;;;1.80;99.90;;;;;;4940247;28;20922;-73
2023/01/23 02:12:39;;;;;;;15.43;10.00;;;1.90;99.90;;;;;;4951106;28;20443;-73
2023/01/23 02:15:06;;;;;;;17.27;10.00;;;1.70;99.90;;;;;;4950102;28;20794;-74
2023/01/23 02:17:34;;;;;;;16.63;10.07;;;1.80;99.90;;;;;;4950524;28;20535;-74
2023/01/23 02:20:24;;;;;;;15.67;9.30;;;1.80;99.90;;;;;;4943225;28;21022;-74
2023/01/23 02:23:08;;;;;;;16.37;9.40;;;1.90;99.90;;;;;;4951151;28;20534;-74
2023/01/23 02:25:50;;;;;;;16.93;9.23;;;2.00;99.90;;;;;;4943612;28;20858;-74
2023/01/23 02:28:16;;;;;;;14.90;8.93;;;2.30;99.90;;;;;;4950355;28;20428;-71
2023/01/23 02:30:45;;;;;;;13.80;9.13;;;2.50;99.90;;;;;;4949922;28;20440;-72
2023/01/23 02:33:31;;;;;;;17.43;9.87;;;2.10;99.90;;;;;;4951044;28;20428;-74
2023/01/23 02:36:01;;;;;;;17.90;10.03;;;2.10;99.90;;;;;;4946359;28;21025;-72
2023/01/23 02:38:31;;;;;;;17.10;9.60;;;2.10;99.90;;;;;;4948886;28;20444;-74
2023/01/23 02:41:01;;;;;;;20.10;10.23;;;2.10;99.90;;;;;;4950362;28;20475;-72
2023/01/23 02:43:40;;;;;;;17.10;10.33;;;2.10;99.90;;;;;;4950391;28;20436;-74
2023/01/23 02:46:09;;;;;;;15.00;8.80;;;2.30;99.90;;;;;;4950438;28;20514;-73
2023/01/23 02:48:36;;;;;;;16.90;9.80;;;2.60;99.90;;;;;;4949251;28;20499;-75
2023/01/23 02:51:01;;;;;;;19.57;9.70;;;2.20;99.90;;;;;;4950101;28;20448;-73
2023/01/23 02:53:28;;;;;;;13.80;8.90;;;2.30;99.90;;;;;;4955390;28;20810;-74
2023/01/23 02:55:55;;;;;;;14.17;8.87;;;2.70;99.90;;;;;;4954682;28;20184;-74
2023/01/23 03:01:05;;;;;;;19.37;9.63;;;2.20;99.90;;;;;;4950240;28;20842;-74
2023/01/23 03:03:30;;;;;;;16.07;9.00;;;2.60;99.90;;;;;;4950843;28;20448;-75
2023/01/23 03:05:58;;;;;;;17.37;9.27;;;2.20;99.90;;;;;;4948375;28;20185;-74
2023/01/23 03:08:33;;;;;;;16.60;10.00;;;2.20;99.90;;;;;;4942874;28;20183;-74
2023/01/23 03:11:03;;;;;;;17.77;9.50;;;2.30;99.90;;;;;;4947341;28;20439;-72
2023/01/23 03:13:29;;;;;;;14.47;8.87;;;2.30;99.90;;;;;;4940998;28;20428;-74
2023/01/23 03:15:56;;;;;;;14.33;8.87;;;2.30;99.90;;;;;;4943715;28;20444;-74
2023/01/23 03:18:22;;;;;;;16.73;9.30;;;3.00;99.90;;;;;;4948947;28;20808;-74
2023/01/23 03:20:48;;;;;;;15.90;9.20;;;2.30;99.90;;;;;;4949588;28;21044;-75
2023/01/23 03:23:15;;;;;;;13.13;8.17;;;2.70;99.90;;;;;;4950724;28;20428;-74
2023/01/23 03:25:45;;;;;;;14.67;8.70;;;2.30;99.90;;;;;;4948221;28;20195;-72
2023/01/23 03:30:54;;;;;;;16.27;9.33;;;2.30;99.90;;;;;;4946175;28;20427;-74
2023/01/23 03:33:20;;;;;;;12.43;8.00;;;2.30;99.90;;;;;;4951400;28;20435;-73
2023/01/23 03:35:46;;;;;;;12.30;8.40;;;2.70;99.90;;;;;;4952296;28;20193;-73
2023/01/23 03:38:13;;;;;;;14.37;8.53;;;2.30;99.90;;;;;;4953634;28;20201;-75
2023/01/23 03:43:22;;;;;;;14.80;8.97;;;2.30;99.90;;;;;;4953269;28;20454;-74
2023/01/23 03:45:48;;;;;;;14.83;8.63;;;2.30;99.90;;;;;;4950771;28;20444;-75
2023/01/23 03:48:13;;;;;;;12.93;8.40;;;2.30;99.90;;;;;;4953910;28;20196;-73
2023/01/23 03:50:39;;;;;;;15.03;8.33;;;2.40;99.90;;;;;;4950777;28;20613;-73
2023/01/23 03:53:04;;;;;;;12.03;7.87;;;2.70;99.90;;;;;;4953625;28;20216;-73
2023/01/23 03:55:30;;;;;;;14.30;8.50;;;2.40;99.90;;;;;;4952546;28;20199;-74
2023/01/23 03:57:55;;;;;;;11.00;6.87;;;2.50;99.90;;;;;;4950609;28;20300;-75
2023/01/23 04:00:21;;;;;;;17.60;8.60;;;2.90;99.90;;;;;;4950730;28;20216;-74
2023/01/23 04:02:46;;;;;;;14.57;8.20;;;2.50;97.60;;;;;;4951135;28;20219;-74
2023/01/23 04:05:12;;;;;;;13.70;7.60;;;2.60;96.40;;;;;;4950860;28;20263;-73
2023/01/23 04:07:37;;;;;;;12.83;8.37;;;2.50;97.80;;;;;;4952398;28;20197;-74
2023/01/23 04:10:03;;;;;;;12.23;7.40;;;2.50;96.90;;;;;;4951931;28;20246;-72
2023/01/23 04:12:28;;;;;;;12.20;7.70;;;2.60;96.30;;;;;;4953367;28;20634;-74
2023/01/23 04:14:54;;;;;;;13.37;8.60;;;2.60;96.40;;;;;;4950453;28;20204;-73
2023/01/23 04:17:19;;;;;;;13.37;8.00;;;2.60;96.30;;;;;;4952822;28;20193;-74
2023/01/23 04:19:45;;;;;;;13.73;8.03;;;2.60;96.40;;;;;;4951068;28;20180;-73
2023/01/23 04:22:10;;;;;;;14.30;8.50;;;2.80;96.40;;;;;;4952574;28;20591;-74
2023/01/23 04:24:36;;;;;;;14.10;8.37;;;2.70;96.30;;;;;;4953075;28;20180;-74
2023/01/23 04:27:01;;;;;;;14.13;8.10;;;2.70;96.30;;;;;;4951666;28;20188;-74
2023/01/23 04:29:27;;;;;;;13.30;8.23;;;2.70;96.40;;;;;;4952103;28;20224;-73
2023/01/23 04:31:53;;;;;;;13.07;7.23;;;2.80;93.60;;;;;;4952239;28;20212;-74
2023/01/23 04:34:18;;;;;;;12.13;8.20;;;2.90;94.90;;;;;;4952649;28;20197;-74
2023/01/23 04:36:44;;;;;;;14.33;8.77;;;2.70;93.90;;;;;;4951923;28;20199;-74
2023/01/23 04:39:09;;;;;;;14.37;9.00;;;2.60;93.50;;;;;;4952392;28;20199;-74
2023/01/23 04:41:35;;;;;;;14.03;8.13;;;2.90;92.90;;;;;;4952189;28;20216;-74
2023/01/23 04:44:18;;;;;;;16.37;8.77;;;2.70;92.20;;;;;;4952020;28;20695;-74
2023/01/23 04:46:45;;;;;;;14.20;8.70;;;2.60;91.00;;;;;;4944205;28;20181;-74
2023/01/23 04:49:11;;;;;;;15.30;9.30;;;2.80;90.40;;;;;;4954300;28;20529;-74
2023/01/23 04:51:36;;;;;;;14.57;8.60;;;3.10;91.10;;;;;;4951870;28;20495;-74
2023/01/23 04:54:02;;;;;;;13.77;8.10;;;3.10;91.80;;;;;;4952564;28;20211;-74
2023/01/23 04:56:27;;;;;;;14.50;8.60;;;2.70;84.60;;;;;;4948184;28;20618;-74
2023/01/23 04:58:53;;;;;;;13.30;8.20;;;3.00;90.40;;;;;;4950778;28;20813;-74
2023/01/23 05:01:22;;;;;;;16.03;7.97;;;2.70;83.40;;;;;;4949587;28;20714;-74
2023/01/23 05:03:51;;;;;;;12.97;7.87;;;2.70;90.00;;;;;;4950055;28;20190;-74
2023/01/23 05:06:17;;;;;;;19.80;8.70;;;2.70;85.90;;;;;;4949043;28;20450;-73
2023/01/23 05:08:43;;;;;;;15.07;9.43;;;2.70;77.80;;;;;;4949434;28;20452;-74
2023/01/23 05:11:09;;;;;;;12.90;8.10;;;2.80;80.90;;;;;;4949220;28;20295;-73
2023/01/23 05:13:34;;;;;;;15.40;8.40;;;2.90;75.30;;;;;;4951129;28;20647;-74
2023/01/23 05:16:00;;;;;;;12.53;7.70;;;2.70;72.80;;;;;;4950371;28;20219;-74
2023/01/23 05:18:25;;;;;;;13.40;7.60;;;2.70;63.30;;;;;;4945574;28;20579;-74
2023/01/23 05:20:51;;;;;;;10.23;7.00;;;2.70;58.30;;;;;;4950910;28;20694;-74
2023/01/23 05:23:16;;;;;;;9.73;6.73;;;2.70;60.80;;;;;;4945811;28;20667;-74
2023/01/23 05:25:43;;;;;;;11.43;7.20;;;2.80;60.20;;;;;;4951949;28;20259;-72
2023/01/23 05:28:09;;;;;;;11.50;6.90;;;2.90;62.40;;;;;;4951040;28;20184;-73
2023/01/23 05:30:34;;;;;;;11.60;6.93;;;2.80;63.60;;;;;;4948831;28;20445;-73
2023/01/23 05:33:00;;;;;;;11.97;6.83;;;2.80;71.20;;;;;;4951171;28;20212;-74
2023/01/23 05:36:36;;;;;;;9.87;6.40;;;2.70;54.50;;;;;;5063893;28;20574;-72
2023/01/23 05:39:02;;;;;;;10.83;6.97;;;3.00;53.20;;;;;;5064013;28;20813;-73
2023/01/23 05:41:27;;;;;;;13.07;7.60;;;2.80;69.60;;;;;;5053578;28;20219;-73
2023/01/23 05:43:53;;;;;;;13.83;8.57;;;2.90;72.10;;;;;;5046649;28;20185;-73
2023/01/23 05:46:18;;;;;;;13.90;8.20;;;2.70;70.00;;;;;;5047459;28;20647;-73
2023/01/23 05:48:48;;;;;;;17.33;8.80;;;2.90;68.30;;;;;;5041620;28;20209;-70
2023/01/23 05:51:13;;;;;;;14.87;9.00;;;2.80;75.20;;;;;;5020570;28;20197;-71
2023/01/23 05:53:39;;;;;;;14.20;8.20;;;2.90;71.00;;;;;;5040829;28;20470;-73
2023/01/23 05:56:08;;;;;;;15.53;7.80;;;2.80;57.80;;;;;;5040367;28;20208;-69
2023/01/23 05:58:34;;;;;;;13.70;8.57;;;2.80;66.00;;;;;;5038574;28;21657;-74
2023/01/23 06:01:02;;;;;;;15.87;9.00;;;2.80;69.60;;;;;;5044166;28;20869;-73
2023/01/23 06:03:28;;;;;;;14.47;9.00;;;2.80;71.80;;;;;;5042871;28;20181;-71
2023/01/23 06:05:53;;;;;;;13.10;7.90;;;2.80;64.70;;;;;;5037999;28;20967;-73
2023/01/23 06:08:19;;;;;;;17.17;9.57;;;2.80;54.00;;;;;;5045187;28;20311;-72
2023/01/23 06:10:44;;;;;;;14.93;8.27;;;3.00;59.90;;;;;;5045088;28;20180;-73
2023/01/23 06:13:10;;;;;;;14.20;8.63;;;2.50;53.20;;;;;;5044879;28;20555;-71
2023/01/23 06:15:36;;;;;;;13.33;8.63;;;2.80;59.60;;;;;;5044842;28;20679;-72
2023/01/23 06:18:01;;;;;;;15.50;9.17;;;2.40;64.80;;;;;;5041033;28;20208;-73
2023/01/23 06:20:27;;;;;;;16.50;9.40;;;2.30;77.60;;;;;;5044481;28;21129;-72
2023/01/23 06:22:52;;;;;;;15.53;9.40;;;2.20;73.50;;;;;;5044543;28;20208;-72
2023/01/23 06:25:19;;;;;;;17.40;8.90;;;2.10;72.20;;;;;;5043712;28;20575;-72
2023/01/23 06:27:45;;;;;;;15.60;8.80;;;2.00;76.20;;;;;;5043661;28;20234;-75
2023/01/23 06:30:11;;;;;;;15.30;8.43;;;2.30;78.50;;;;;;5044503;28;20856;-72
2023/01/23 06:32:36;;;;;;;33.90;16.20;;;1.90;81.30;;;;;;5045505;28;20198;-75
2023/01/23 06:35:02;;;;;;;23.30;13.53;;;2.30;80.30;;;;;;5044174;28;20462;-74
2023/01/23 06:37:28;;;;;;;18.43;10.90;;;1.80;78.50;;;;;;5042281;28;20262;-74
2023/01/23 06:39:53;;;;;;;20.60;11.70;;;1.80;81.00;;;;;;5042410;28;20189;-74
2023/01/23 06:42:19;;;;;;;18.97;11.80;;;1.90;81.50;;;;;;5042489;28;20232;-72
2023/01/23 06:44:44;;;;;;;21.07;10.80;;;1.70;80.80;;;;;;5043639;28;20785;-74
2023/01/23 06:47:10;;;;;;;19.87;10.10;;;2.10;82.40;;;;;;5034080;28;20256;-73
2023/01/23 06:49:35;;;;;;;18.40;9.67;;;1.50;79.70;;;;;;5029689;28;20181;-74
2023/01/23 06:52:01;;;;;;;18.07;10.60;;;1.90;87.10;;;;;;5030573;28;20205;-73
2023/01/23 06:54:26;;;;;;;19.30;10.30;;;1.50;85.60;;;;;;5030335;28;20655;-73
2023/01/23 06:56:52;;;;;;;19.57;11.20;;;1.80;86.40;;;;;;5025641;28;20535;-74
2023/01/23 06:59:17;;;;;;;21.13;11.60;;;1.60;91.10;;;;;;5028590;28;20667;-72
2023/01/23 07:01:43;;;;;;;20.03;11.37;;;1.90;90.80;;;;;;5027982;28;20719;-74
2023/01/23 07:04:08;;;;;;;17.27;10.20;;;1.80;94.00;;;;;;5029219;28;20890;-73
2023/01/23 07:06:34;;;;;;;20.50;11.43;;;2.70;99.90;;;;;;5035587;28;20668;-74
2023/01/23 07:09:00;;;;;;;20.10;11.40;;;2.60;96.30;;;;;;5032560;28;20272;-73
2023/01/23 07:11:26;;;;;;;19.40;11.13;;;2.30;90.20;;;;;;5030769;28;20717;-74
2023/01/23 07:13:52;;;;;;;16.97;10.87;;;2.10;85.10;;;;;;5029113;28;20224;-71
2023/01/23 07:16:18;;;;;;;19.37;11.40;;;2.10;78.30;;;;;;5046076;28;20464;-73
2023/01/23 07:18:44;;;;;;;17.27;10.80;;;2.20;70.70;;;;;;5031390;28;20174;-74
2023/01/23 07:21:09;;;;;;;22.20;11.33;;;1.90;76.70;;;;;;5030775;28;20458;-74
2023/01/23 07:23:35;;;;;;;17.43;10.20;;;1.90;76.60;;;;;;5027832;28;20652;-74
2023/01/23 07:26:03;;;;;;;16.30;10.03;;;2.20;76.60;;;;;;5028723;28;20680;-74
2023/01/23 07:28:29;;;;;;;14.03;8.50;;;2.10;73.80;;;;;;5028658;28;20200;-73
2023/01/23 07:30:57;;;;;;;14.43;9.03;;;2.20;69.30;;;;;;5028844;28;20990;-74
2023/01/23 07:33:22;;;;;;;12.97;8.10;;;2.30;64.00;;;;;;5023860;28;20856;-73
2023/01/23 07:35:48;;;;;;;14.30;8.33;;;2.50;58.40;;;;;;5028185;28;20541;-73
2023/01/23 07:38:13;;;;;;;13.03;7.77;;;2.50;36.70;;;;;;5031035;28;20204;-72
2023/01/23 07:40:41;;;;;;;12.90;7.27;;;2.60;38.10;;;;;;5023004;28;20181;-73
2023/01/23 07:43:07;;;;;;;13.87;8.53;;;3.10;39.50;;;;;;5028659;28;20460;-74
2023/01/23 07:45:32;;;;;;;12.07;7.07;;;2.80;33.10;;;;;;5030081;28;20462;-74
2023/01/23 07:47:58;;;;;;;12.97;8.23;;;2.90;33.20;;;;;;5028765;28;20202;-73
2023/01/23 07:50:23;;;;;;;14.37;8.50;;;3.00;33.30;;;;;;5029192;28;20267;-73
2023/01/23 07:52:49;;;;;;;14.27;8.10;;;3.00;33.30;;;;;;5032539;28;20205;-74
2023/01/23 07:55:15;;;;;;;13.50;8.60;;;3.30;33.50;;;;;;5029088;28;20392;-72
2023/01/23 07:57:41;;;;;;;15.50;9.17;;;3.30;33.50;;;;;;5030990;28;20244;-76
2023/01/23 08:00:08;;;;;;;14.90;8.60;;;3.40;33.60;;;;;;5030638;28;20170;-74
2023/01/23 08:02:33;;;;;;;15.43;8.60;;;3.50;33.60;;;;;;5029511;28;20575;-74
2023/01/23 08:04:59;;;;;;;15.10;9.37;;;3.60;29.80;;;;;;5033287;28;20446;-74
2023/01/23 08:07:24;;;;;;;16.40;9.57;;;3.60;19.90;;;;;;5026944;28;20183;-74
2023/01/23 08:09:50;;;;;;;14.50;8.57;;;3.60;24.40;;;;;;5027977;28;20178;-73
2023/01/23 08:12:15;;;;;;;14.30;8.47;;;3.60;24.60;;;;;;5030216;28;20256;-74
2023/01/23 08:14:41;;;;;;;14.93;8.83;;;3.70;18.30;;;;;;5029950;28;20776;-74
2023/01/23 08:17:06;;;;;;;14.67;9.10;;;3.70;22.80;;;;;;5029163;28;20178;-73
2023/01/23 08:19:32;;;;;;;16.17;9.47;;;3.70;15.00;;;;;;5029483;28;20600;-73
2023/01/23 08:21:57;;;;;;;16.80;10.20;;;3.80;18.80;;;;;;5031741;28;20227;-74
2023/01/23 08:24:23;;;;;;;15.43;9.40;;;3.90;23.30;;;;;;5030977;28;20725;-73
2023/01/23 08:26:48;;;;;;;17.90;10.10;;;3.90;14.90;;;;;;5030178;28;20675;-75
2023/01/23 08:29:14;;;;;;;16.43;10.10;;;3.90;16.50;;;;;;5030056;28;20182;-74
2023/01/23 08:31:39;;;;;;;16.67;9.67;;;4.10;12.80;;;;;;5028055;28;20260;-75
2023/01/23 08:34:05;;;;;;;16.67;10.07;;;4.00;9.00;;;;;;5030413;28;20192;-74
2023/01/23 08:36:30;;;;;;;16.70;9.70;;;4.10;15.20;;;;;;5023382;28;20217;-74
2023/01/23 08:38:56;;;;;;;15.57;9.20;;;4.10;9.20;;;;;;5029037;28;20182;-74
2023/01/23 08:41:22;;;;;;;13.53;9.10;;;4.20;13.40;;;;;;5025716;28;20557;-73
2023/01/23 08:43:49;;;;;;;20.63;10.70;;;4.10;13.70;;;;;;5028241;28;20239;-74
2023/01/23 08:46:14;;;;;;;19.67;10.43;;;4.30;11.50;;;;;;5027515;28;20181;-74
2023/01/23 08:48:40;;;;;;;19.07;10.60;;;4.00;10.00;;;;;;5030732;28;21284;-74
2023/01/23 08:51:09;;;;;;;18.50;10.03;;;3.90;16.70;;;;;;5031144;28;20288;-75
2023/01/23 08:53:35;;;;;;;17.53;9.93;;;3.90;18.80;;;;;;5026815;28;20198;-74
2023/01/23 08:56:01;;;;;;;16.07;9.60;;;3.90;22.80;;;;;;5031236;28;20467;-75
2023/01/23 08:58:27;;;;;;;17.07;10.67;;;3.90;16.30;;;;;;5029444;28;20185;-74
2023/01/23 09:00:53;;;;;;;16.17;10.33;;;3.80;14.30;;;;;;5028511;28;20440;-75
2023/01/23 09:03:19;;;;;;;17.30;8.83;;;3.70;16.60;;;;;;5029618;28;20539;-72
2023/01/23 09:05:45;;;;;;;12.87;8.00;;;3.60;2.20;;;;;;5028090;28;20268;-72
2023/01/23 09:08:10;;;;;;;16.23;8.60;;;3.90;2.90;;;;;;5024576;28;20235;-75
2023/01/23 09:10:36;;;;;;;13.17;7.97;;;3.40;4.50;;;;;;5028887;28;20437;-74
2023/01/23 09:13:02;;;;;;;14.10;7.97;;;3.30;3.00;;;;;;5029800;28;20197;-73
2023/01/23 09:15:27;;;;;;;13.33;7.37;;;3.20;8.10;;;;;;5026105;28;20238;-72
2023/01/23 09:17:53;;;;;;;14.30;7.40;;;3.20;3.70;;;;;;5025999;28;20259;-73
2023/01/23 09:20:19;;;;;;;14.13;8.50;;;3.10;6.80;;;;;;5024485;28;20182;-74
2023/01/23 09:22:44;;;;;;;16.50;8.33;;;3.20;14.40;;;;;;5026068;28;20206;-74
2023/01/23 09:25:11;;;;;;;14.50;7.73;;;3.30;13.40;;;;;;5029475;28;20274;-74
2023/01/23 09:27:36;;;;;;;10.27;6.90;;;3.40;9.70;;;;;;5025952;28;20189;-74
2023/01/23 09:30:02;;;;;;;10.90;6.53;;;3.40;1.00;;;;;;5026273;28;21067;-72
2023/01/23 09:32:27;;;;;;;15.47;7.60;;;3.20;3.60;;;;;;5025875;28;20213;-73
2023/01/23 09:34:53;;;;;;;11.23;7.20;;;3.30;9.10;;;;;;5029466;28;21033;-73
2023/01/23 09:37:19;;;;;;;12.57;7.30;;;3.90;4.40;;;;;;5027433;28;20181;-74
2023/01/23 09:39:45;;;;;;;9.97;6.57;;;3.40;4.10;;;;;;5028924;28;20189;-73
2023/01/23 09:42:17;;;;;;;11.57;7.20;;;3.30;1.00;;;;;;5026767;28;20582;-74
2023/01/23 09:44:52;;;;;;;13.30;7.73;;;3.80;5.10;;;;;;5028373;28;20236;-75
2023/01/23 09:47:32;;;;;;;12.40;7.50;;;3.30;5.00;;;;;;5028805;28;20447;-74
2023/01/23 09:50:20;;;;;;;9.90;6.90;;;3.40;6.50;;;;;;5029138;28;21143;-74
2023/01/23 09:52:53;;;;;;;10.67;7.17;;;3.40;3.10;;;;;;5031119;28;20543;-74
2023/01/23 09:55:42;;;;;;;10.53;7.07;;;3.60;3.70;;;;;;5027126;28;20468;-73
2023/01/23 09:58:33;;;;;;;9.87;6.00;;;3.60;3.50;;;;;;5025728;28;20456;-74
2023/01/23 10:00:59;;;;;;;12.40;7.27;;;3.40;1.00;;;;;;5017573;28;20949;-74
2023/01/23 10:03:29;;;;;;;12.23;7.07;;;3.40;4.30;;;;;;5023504;28;20437;-74
2023/01/23 10:06:14;;;;;;;11.70;7.10;;;3.40;3.40;;;;;;5024343;28;20273;-75
2023/01/23 10:09:10;;;;;;;12.20;7.53;;;3.30;1.00;;;;;;5026317;28;20436;-76
2023/01/23 10:11:44;;;;;;;11.10;7.00;;;3.30;4.40;;;;;;5043710;28;20480;-76
2023/01/23 10:14:10;;;;;;;17.80;7.83;;;3.20;1.00;;;;;;5025106;28;20439;-74
2023/01/23 10:17:04;;;;;;;14.50;8.10;;;3.20;10.30;;;;;;5028034;28;20510;-73
2023/01/23 10:19:56;;;;;;;12.37;7.50;;;3.30;13.30;;;;;;5044287;28;20269;-73
2023/01/23 10:22:40;;;;;;;15.10;7.47;;;3.30;10.30;;;;;;5031783;28;20452;-73
2023/01/23 10:25:22;;;;;;;11.30;6.93;;;3.40;10.90;;;;;;5026312;28;20428;-74
2023/01/23 10:27:50;;;;;;;11.27;7.40;;;3.40;6.80;;;;;;5035216;28;20432;-74
2023/01/23 10:30:18;;;;;;;11.37;6.90;;;3.70;16.30;;;;;;5036196;28;20436;-74
2023/01/23 10:32:59;;;;;;;12.00;7.70;;;3.50;17.60;;;;;;5030795;28;20456;-74
2023/01/23 10:35:34;;;;;;;11.37;6.90;;;3.50;9.60;;;;;;5030822;28;20500;-74
2023/01/23 10:38:01;;;;;;;11.20;7.13;;;3.40;1.00;;;;;;5032335;28;20531;-75
2023/01/23 10:43:17;;;;;;;13.73;8.67;;;3.40;16.00;;;;;;5032147;28;20443;-75
2023/01/23 10:45:45;;;;;;;16.33;7.80;;;3.50;17.80;;;;;;5031060;28;20881;-75
2023/01/23 10:48:31;;;;;;;14.03;7.27;;;3.60;11.90;;;;;;5031605;28;20447;-75
2023/01/23 10:50:57;;;;;;;14.47;7.90;;;3.60;15.80;;;;;;5027923;28;20946;-75
2023/01/23 10:53:24;;;;;;;12.00;7.07;;;3.70;17.00;;;;;;5031034;28;20479;-74
2023/01/23 10:55:54;;;;;;;10.23;6.97;;;3.60;10.40;;;;;;5030592;28;20498;-75
2023/01/23 10:58:39;;;;;;;10.37;6.37;;;3.50;5.50;;;;;;5032737;28;20432;-75
2023/01/23 11:01:22;;;;;;;11.53;7.63;;;3.50;12.40;;;;;;5028037;28;20456;-75
2023/01/23 11:03:47;;;;;;;12.53;6.67;;;3.50;19.20;;;;;;5027263;28;20432;-75
2023/01/23 11:06:19;;;;;;;12.17;7.53;;;3.60;16.40;;;;;;5026080;28;20535;-74
2023/01/23 11:08:56;;;;;;;12.70;8.00;;;3.60;20.20;;;;;;5028952;28;20198;-75
2023/01/23 11:11:31;;;;;;;10.97;7.00;;;3.80;11.80;;;;;;5033088;28;21019;-75
2023/01/23 11:14:21;;;;;;;18.10;8.30;;;3.70;8.90;;;;;;5024857;28;20539;-74
2023/01/23 11:16:59;;;;;;;15.57;7.83;;;4.00;9.20;;;;;;5024687;28;20768;-74
2023/01/23 11:19:25;;;;;;;10.67;7.03;;;3.80;22.60;;;;;;5026737;28;20432;-75
2023/01/23 11:21:54;;;;;;;13.73;7.67;;;3.90;11.40;;;;;;5033975;28;20795;-75
2023/01/23 11:24:28;;;;;;;14.13;8.40;;;3.90;13.60;;;;;;5032263;28;20420;-75
2023/01/23 11:27:14;;;;;;;16.77;8.73;;;3.90;14.30;;;;;;5029508;28;20439;-74
2023/01/23 11:30:01;;;;;;;12.90;8.10;;;4.00;13.60;;;;;;5028988;28;20440;-73
2023/01/23 11:32:31;;;;;;;15.37;7.80;;;3.90;10.90;;;;;;5030276;28;20500;-74
2023/01/23 11:35:10;;;;;;;11.50;7.83;;;3.80;11.60;;;;;;5025610;28;20626;-75
2023/01/23 11:37:39;;;;;;;15.37;8.13;;;3.80;23.30;;;;;;5030086;28;20443;-74
2023/01/23 11:40:15;;;;;;;21.60;10.47;;;3.90;12.60;;;;;;5029985;28;20749;-75
2023/01/23 11:42:42;;;;;;;28.00;15.53;;;3.90;22.40;;;;;;5027753;28;20460;-73
2023/01/23 11:45:30;;;;;;;22.63;12.87;;;4.10;29.40;;;;;;5024401;28;21151;-75
2023/01/23 11:48:17;;;;;;;19.73;9.00;;;4.20;19.10;;;;;;5044423;28;20433;-75
2023/01/23 11:51:02;;;;;;;14.97;8.10;;;4.30;11.70;;;;;;5026067;28;20535;-75
2023/01/23 11:53:57;;;;;;;10.17;6.90;;;4.20;5.90;;;;;;5029600;28;20510;-74
2023/01/23 11:56:28;;;;;;;14.20;8.17;;;4.10;15.50;;;;;;5028028;28;20468;-74
2023/01/23 11:59:22;;;;;;;10.87;7.40;;;4.10;17.80;;;;;;5029365;28;20436;-74
2023/01/23 12:02:11;;;;;;;13.57;7.73;;;4.10;16.70;;;;;;5029064;28;20480;-74
2023/01/23 12:04:42;;;;;;;12.27;7.57;;;4.10;16.40;;;;;;5028713;28;20425;-74
2023/01/23 12:07:21;;;;;;;12.60;7.60;;;4.10;16.90;;;;;;5028669;28;20916;-75
2023/01/23 12:10:02;;;;;;;10.30;6.90;;;4.20;17.70;;;;;;5030782;28;20490;-74
2023/01/23 12:12:43;;;;;;;10.77;6.80;;;4.30;15.70;;;;;;5030624;28;20482;-75
2023/01/23 12:15:22;;;;;;;13.83;7.37;;;4.40;13.60;;;;;;5024269;28;20456;-75
2023/01/23 12:18:03;;;;;;;11.07;6.90;;;4.30;5.10;;;;;;5031864;28;20436;-75
2023/01/23 12:21:01;;;;;;;11.27;7.37;;;4.30;10.80;;;;;;5029181;28;20472;-74
2023/01/23 12:23:35;;;;;;;10.83;6.73;;;4.20;7.20;;;;;;5031553;28;20526;-75
2023/01/23 12:26:12;;;;;;;13.20;7.60;;;4.20;13.80;;;;;;5030325;28;20428;-76
2023/01/23 12:29:12;;;;;;;14.93;8.67;;;4.40;18.50;;;;;;5028165;28;20468;-76
2023/01/23 12:32:13;;;;;;;15.93;9.57;;;4.40;13.40;;;;;;5024586;28;20495;-75
2023/01/23 12:34:56;;;;;;;12.83;8.53;;;4.60;21.60;;;;;;5022524;28;20441;-76
2023/01/23 12:38:02;;;;;;;12.40;7.80;;;4.60;14.10;;;;;;5027827;28;20445;-76
2023/01/23 12:40:36;;;;;;;13.50;8.50;;;4.60;13.40;;;;;;5022167;28;20503;-76
2023/01/23 12:43:25;;;;;;;11.17;7.30;;;4.50;13.90;;;;;;5029751;28;20828;-77
2023/01/23 12:45:59;;;;;;;13.67;7.70;;;4.30;2.90;;;;;;5022880;28;20959;-76
2023/01/23 12:48:31;;;;;;;11.43;7.00;;;4.20;12.70;;;;;;5029364;28;20459;-76
2023/01/23 12:51:01;;;;;;;16.40;8.30;;;4.20;24.90;;;;;;5029461;28;20440;-75
2023/01/23 12:53:29;;;;;;;14.73;8.30;;;4.20;23.60;;;;;;5028292;28;20824;-76
2023/01/23 12:56:00;;;;;;;14.63;8.50;;;4.30;21.30;;;;;;5030006;28;20460;-76
2023/01/23 12:58:30;;;;;;;12.43;7.10;;;4.40;18.00;;;;;;5028925;28;20439;-76
2023/01/23 13:01:00;;;;;;;12.93;7.97;;;4.40;8.00;;;;;;5031813;28;20465;-73
2023/01/23 13:03:58;;;;;;;12.77;7.93;;;4.40;12.00;;;;;;5044213;28;20443;-75
2023/01/23 13:06:43;;;;;;;12.70;7.70;;;4.40;13.60;;;;;;5021863;28;20443;-75
2023/01/23 13:09:37;;;;;;;16.70;9.17;;;4.40;17.00;;;;;;5027701;28;20661;-76
2023/01/23 13:12:25;;;;;;;11.80;7.77;;;4.50;17.20;;;;;;5027789;28;20554;-75